Time;durP1;ratioP1;P1;durP2;ratioP2;P2;SDS_P1;SDS_P2;PMS_P1;PMS_P2;Temp;Humidity;BMP_temperature;BMP_pressure;BME280_temperature;BME280_humidity;BME280_pressure;Samples;Min_cycle;Max_cycle;Signal;HPM_P1;HPM_P2
2021/01/08 00:00:20;;;;;;;;;;;;;;;;;;5135267;27;858;-72
2021/01/08 00:02:45;;;;;;;;;;;;;;;;;;5135474;27;862;-72
2021/01/08 00:05:11;;;;;;;;;;;;;;;;;;5135058;27;1356;-72
2021/01/08 00:07:36;;;;;;;;;;;;;;;;;;5135061;27;936;-72
2021/01/08 00:10:02;;;;;;;;;;;;;;;;;;5134016;27;1252;-72
2021/01/08 00:12:31;;;;;;;;;;;;;;;;;;5134227;27;829;-72
2021/01/08 00:14:57;;;;;;;;;;;;;;;;;;5134978;27;1893;-72
2021/01/08 00:17:25;;;;;;;;;;;;;;;;;;5135267;27;982;-72
2021/01/08 00:19:51;;;;;;;;;;;;;;;;;;5133551;27;1524;-72
2021/01/08 00:22:16;;;;;;;;;;;;;;;;;;5135002;27;863;-72
2021/01/08 00:24:41;;;;;;;;;;;;;;;;;;5133604;27;1368;-72
2021/01/08 00:27:06;;;;;;;;;;;;;;;;;;5135122;27;946;-72
2021/01/08 00:29:32;;;;;;;;;;;;;;;;;;5135189;27;927;-72
2021/01/08 00:31:57;;;;;;;;;;;;;;;;;;5134603;28;967;-72
2021/01/08 00:34:22;;;;;;;;;;;;;;;;;;5134813;28;1897;-72
2021/01/08 00:36:48;;;;;;;;;;;;;;;;;;5133822;28;1295;-71
2021/01/08 00:39:13;;;;;;;;;;;;;;;;;;5133529;28;1462;-72
2021/01/08 00:41:38;;;;;;;;;;;;;;;;;;5133631;28;927;-72
2021/01/08 00:44:04;;;;;;;;;;;;;;;;;;5134893;28;864;-72
2021/01/08 00:46:36;;;;;;;;;;;;;;;;;;5134672;28;1454;-73
2021/01/08 00:49:11;;;;;;;;;;;;;;;;;;5136657;27;1334;-73
2021/01/08 00:51:37;;;;;;;;;;;;;;;;;;5138849;27;785;-72
2021/01/08 00:54:03;;;;;;;;;;;;;;;;;;5137376;27;1973;-73
2021/01/08 00:56:28;;;;;;;;;;;;;;;;;;5137878;27;1478;-72
2021/01/08 00:58:54;;;;;;;;;;;;;;;;;;5138836;27;817;-72
2021/01/08 01:01:19;;;;;;;;;;;;;;;;;;5138687;27;950;-72
2021/01/08 01:03:45;;;;;;;;;;;;;;;;;;5138987;27;872;-72
2021/01/08 01:06:10;;;;;;;;;;;;;;;;;;5134990;27;1419;-71
2021/01/08 01:08:36;;;;;;;;;;;;;;;;;;5127735;27;1065;-71
2021/01/08 01:11:01;;;;;;;;;;;;;;;;;;5138472;27;884;-72
2021/01/08 01:13:27;;;;;;;;;;;;;;;;;;5138689;27;1893;-72
2021/01/08 01:15:52;;;;;;;;;;;;;;;;;;5137098;27;1344;-72
2021/01/08 01:18:18;;;;;;;;;;;;;;;;;;5137365;27;2612;-72
2021/01/08 01:20:43;;;;;;;;;;;;;;;;;;5138519;27;867;-72
2021/01/08 01:23:08;;;;;;;;;;;;;;;;;;5137350;27;845;-72
2021/01/08 01:25:34;;;;;;;;;;;;;;;;;;5136768;27;1435;-72
2021/01/08 01:27:59;;;;;;;;;;;;;;;;;;5137269;27;1182;-72
2021/01/08 01:30:24;;;;;;;;;;;;;;;;;;5138211;27;821;-72
2021/01/08 01:32:50;;;;;;;;;;;;;;;;;;5136861;27;1894;-72
2021/01/08 01:35:15;;;;;;;;;;;;;;;;;;5138093;27;1375;-72
2021/01/08 01:37:40;;;;;;;;;;;;;;;;;;5137803;27;816;-72
2021/01/08 01:40:06;;;;;;;;;;;;;;;;;;5138023;27;820;-72
2021/01/08 01:42:31;;;;;;;;;;;;;;;;;;5138010;27;1007;-71
2021/01/08 01:44:56;;;;;;;;;;;;;;;;;;5138073;27;1309;-71
2021/01/08 01:47:22;;;;;;;;;;;;;;;;;;5136441;27;1346;-71
2021/01/08 01:49:47;;;;;;;;;;;;;;;;;;5136184;27;2367;-71
2021/01/08 01:52:13;;;;;;;;;;;;;;;;;;5138113;27;797;-71
2021/01/08 01:54:38;;;;;;;;;;;;;;;;;;5136399;27;1954;-72
2021/01/08 01:57:03;;;;;;;;;;;;;;;;;;5137872;27;813;-71
2021/01/08 01:59:28;;;;;;;;;;;;;;;;;;5136598;27;875;-71
2021/01/08 02:01:55;;;;;;;;;;;;;;;;;;5137473;27;1041;-71
2021/01/08 02:04:21;;;;;;;;;;;;;;;;;;5137252;27;1388;-71
2021/01/08 02:06:47;;;;;;;;;;;;;;;;;;5137576;27;967;-72
2021/01/08 02:09:14;;;;;;;;;;;;;;;;;;5136197;27;1177;-72
2021/01/08 02:11:42;;;;;;;;;;;;;;;;;;5136058;27;931;-72
2021/01/08 02:14:10;;;;;;;;;;;;;;;;;;5135754;27;1960;-72
2021/01/08 02:16:37;;;;;;;;;;;;;;;;;;5136000;27;1479;-72
2021/01/08 02:19:04;;;;;;;;;;;;;;;;;;5137327;27;857;-71
2021/01/08 02:21:38;;;;;;;;;;;;;;;;;;5135871;27;1520;-71
2021/01/08 02:24:08;;;;;;;;;;;;;;;;;;5137036;27;974;-71
2021/01/08 02:26:33;;;;;;;;;;;;;;;;;;5137068;27;1390;-71
2021/01/08 02:28:59;;;;;;;;;;;;;;;;;;5135740;27;1401;-72
2021/01/08 02:31:24;;;;;;;;;;;;;;;;;;5135664;27;1348;-72
2021/01/08 02:33:50;;;;;;;;;;;;;;;;;;5137183;27;1956;-71
2021/01/08 02:36:15;;;;;;;;;;;;;;;;;;5135686;27;1339;-71
2021/01/08 02:38:40;;;;;;;;;;;;;;;;;;5137127;27;966;-71
2021/01/08 02:41:07;;;;;;;;;;;;;;;;;;5135892;27;1494;-70
2021/01/08 02:43:33;;;;;;;;;;;;;;;;;;5135981;27;1021;-71
2021/01/08 02:45:59;;;;;;;;;;;;;;;;;;5136140;27;1431;-71
2021/01/08 02:48:25;;;;;;;;;;;;;;;;;;5137322;27;915;-71
2021/01/08 02:50:51;;;;;;;;;;;;;;;;;;5137057;27;935;-72
2021/01/08 02:53:19;;;;;;;;;;;;;;;;;;5136945;27;1894;-71
2021/01/08 02:55:48;;;;;;;;;;;;;;;;;;5137069;27;1356;-71
2021/01/08 02:58:14;;;;;;;;;;;;;;;;;;5137158;27;991;-71
2021/01/08 03:00:39;;;;;;;;;;;;;;;;;;5137186;27;889;-72
2021/01/08 03:03:04;;;;;;;;;;;;;;;;;;5136980;27;983;-71
2021/01/08 03:05:31;;;;;;;;;;;;;;;;;;5136707;27;1408;-71
2021/01/08 03:07:57;;;;;;;;;;;;;;;;;;5136847;27;1022;-71
2021/01/08 03:10:23;;;;;;;;;;;;;;;;;;5135423;27;848;-71
2021/01/08 03:12:53;;;;;;;;;;;;;;;;;;5136748;27;1954;-71
2021/01/08 03:15:18;;;;;;;;;;;;;;;;;;5136689;27;1301;-71
2021/01/08 03:17:58;;;;;;;;;;;;;;;;;;5092316;28;1349;-70
2021/01/08 03:20:23;;;;;;;;;;;;;;;;;;5091734;28;837;-70
2021/01/08 03:22:48;;;;;;;;;;;;;;;;;;5090860;28;1323;-70
2021/01/08 03:25:14;;;;;;;;;;;;;;;;;;5090712;28;1384;-70
2021/01/08 03:27:39;;;;;;;;;;;;;;;;;;5091910;28;920;-71
2021/01/08 03:30:05;;;;;;;;;;;;;;;;;;5091499;28;1288;-71
2021/01/08 03:32:31;;;;;;;;;;;;;;;;;;5090644;28;1214;-70
2021/01/08 03:34:56;;;;;;;;;;;;;;;;;;5091872;28;1345;-70
2021/01/08 03:37:21;;;;;;;;;;;;;;;;;;5091636;28;1977;-71
2021/01/08 03:39:47;;;;;;;;;;;;;;;;;;5091613;28;872;-71
2021/01/08 03:42:12;;;;;;;;;;;;;;;;;;5091729;28;1031;-70
2021/01/08 03:44:37;;;;;;;;;;;;;;;;;;5090109;28;1329;-70
2021/01/08 03:47:02;;;;;;;;;;;;;;;;;;5090721;28;830;-70
2021/01/08 03:49:28;;;;;;;;;;;;;;;;;;5090430;28;2660;-70
2021/01/08 03:51:53;;;;;;;;;;;;;;;;;;5091178;28;884;-70
2021/01/08 03:54:18;;;;;;;;;;;;;;;;;;5091401;28;1309;-71
2021/01/08 03:56:43;;;;;;;;;;;;;;;;;;5091449;28;1894;-70
2021/01/08 03:59:08;;;;;;;;;;;;;;;;;;5090228;28;865;-70
2021/01/08 04:01:34;;;;;;;;;;;;;;;;;;5091035;28;880;-70
2021/01/08 04:03:59;;;;;;;;;;;;;;;;;;5091304;28;919;-70
2021/01/08 04:06:24;;;;;;;;;;;;;;;;;;5091157;28;1290;-70
2021/01/08 04:08:49;;;;;;;;;;;;;;;;;;5091152;28;1054;-70
2021/01/08 04:11:15;;;;;;;;;;;;;;;;;;5091067;28;920;-70
2021/01/08 04:13:40;;;;;;;;;;;;;;;;;;5090893;28;984;-70
2021/01/08 04:16:05;;;;;;;;;;;;;;;;;;5091031;28;1963;-70
2021/01/08 04:18:30;;;;;;;;;;;;;;;;;;5091031;28;995;-71
2021/01/08 04:20:55;;;;;;;;;;;;;;;;;;5090868;28;995;-71
2021/01/08 04:23:21;;;;;;;;;;;;;;;;;;5090996;28;1022;-70
2021/01/08 04:25:46;;;;;;;;;;;;;;;;;;5090824;28;1266;-70
2021/01/08 04:28:11;;;;;;;;;;;;;;;;;;5082208;28;821;-70
2021/01/08 04:30:36;;;;;;;;;;;;;;;;;;5077146;28;813;-70
2021/01/08 04:33:02;;;;;;;;;;;;;;;;;;5077323;28;956;-69
2021/01/08 04:35:27;;;;;;;;;;;;;;;;;;5077224;28;1269;-70
2021/01/08 04:37:52;;;;;;;;;;;;;;;;;;5075613;28;1890;-70
2021/01/08 04:40:18;;;;;;;;;;;;;;;;;;5076967;28;856;-70
2021/01/08 04:42:43;;;;;;;;;;;;;;;;;;5077310;28;892;-70
2021/01/08 04:45:09;;;;;;;;;;;;;;;;;;5076881;28;1389;-69
2021/01/08 04:47:35;;;;;;;;;;;;;;;;;;5076946;28;972;-71
2021/01/08 04:50:01;;;;;;;;;;;;;;;;;;5076852;28;793;-70
2021/01/08 04:52:26;;;;;;;;;;;;;;;;;;5076745;28;844;-70
2021/01/08 04:54:52;;;;;;;;;;;;;;;;;;5075425;28;1358;-71
2021/01/08 04:57:18;;;;;;;;;;;;;;;;;;5076887;28;1957;-70
2021/01/08 04:59:44;;;;;;;;;;;;;;;;;;5075710;28;1544;-70
2021/01/08 05:02:10;;;;;;;;;;;;;;;;;;5076776;28;892;-70
2021/01/08 05:04:35;;;;;;;;;;;;;;;;;;5076627;28;1293;-70
2021/01/08 05:07:00;;;;;;;;;;;;;;;;;;5076629;28;932;-70
2021/01/08 05:09:25;;;;;;;;;;;;;;;;;;5076347;28;916;-71
2021/01/08 05:11:54;;;;;;;;;;;;;;;;;;5076544;28;809;-70
2021/01/08 05:14:19;;;;;;;;;;;;;;;;;;5076366;28;1276;-70
2021/01/08 05:16:44;;;;;;;;;;;;;;;;;;5076399;28;1939;-71
2021/01/08 05:19:10;;;;;;;;;;;;;;;;;;5076470;28;879;-71
2021/01/08 05:21:35;;;;;;;;;;;;;;;;;;5075623;28;798;-70
2021/01/08 05:24:02;;;;;;;;;;;;;;;;;;5074960;28;1679;-71
2021/01/08 05:26:27;;;;;;;;;;;;;;;;;;5074986;28;1385;-70
2021/01/08 05:28:54;;;;;;;;;;;;;;;;;;5076392;28;830;-70
2021/01/08 05:31:20;;;;;;;;;;;;;;;;;;5075702;28;888;-70
2021/01/08 05:33:48;;;;;;;;;;;;;;;;;;5074807;28;1225;-70
2021/01/08 05:36:13;;;;;;;;;;;;;;;;;;5074683;28;1925;-70
2021/01/08 05:39:08;;;;;;;;;;;;;;;;;;5076130;28;848;-70
2021/01/08 05:41:33;;;;;;;;;;;;;;;;;;5075014;28;1416;-69
2021/01/08 05:43:59;;;;;;;;;;;;;;;;;;5075699;28;853;-70
2021/01/08 05:46:34;;;;;;;;;;;;;;;;;;5075709;28;1365;-70
2021/01/08 05:49:03;;;;;;;;;;;;;;;;;;5075921;28;931;-70
2021/01/08 05:51:30;;;;;;;;;;;;;;;;;;5074430;28;1190;-71
2021/01/08 05:53:58;;;;;;;;;;;;;;;;;;5074563;28;821;-70
2021/01/08 05:56:23;;;;;;;;;;;;;;;;;;5075568;28;1943;-71
2021/01/08 05:58:49;;;;;;;;;;;;;;;;;;5074649;28;1342;-70
2021/01/08 06:01:15;;;;;;;;;;;;;;;;;;5075152;28;836;-70
2021/01/08 06:03:41;;;;;;;;;;;;;;;;;;5074524;28;1320;-70
2021/01/08 06:06:07;;;;;;;;;;;;;;;;;;5075286;28;1452;-70
2021/01/08 06:08:41;;;;;;;;;;;;;;;;;;5075450;28;904;-70
2021/01/08 06:11:07;;;;;;;;;;;;;;;;;;5075200;28;869;-70
2021/01/08 06:13:34;;;;;;;;;;;;;;;;;;5073873;28;1226;-70
2021/01/08 06:16:03;;;;;;;;;;;;;;;;;;5073736;28;1905;-70
2021/01/08 06:18:29;;;;;;;;;;;;;;;;;;5075145;28;837;-70
2021/01/08 06:21:02;;;;;;;;;;;;;;;;;;5075177;28;853;-70
2021/01/08 06:23:44;;;;;;;;;;;;;;;;;;5075137;28;920;-71
2021/01/08 06:26:10;;;;;;;;;;;;;;;;;;5075012;28;1314;-70
2021/01/08 06:28:40;;;;;;;;;;;;;;;;;;5073833;28;1526;-69
2021/01/08 06:31:11;;;;;;;;;;;;;;;;;;5073571;28;893;-68
2021/01/08 06:33:38;;;;;;;;;;;;;;;;;;5075012;28;906;-69
2021/01/08 06:36:13;;;;;;;;;;;;;;;;;;5074794;28;1898;-70
2021/01/08 06:38:44;;;;;;;;;;;;;;;;;;5073611;28;1207;-71
2021/01/08 06:41:12;;;;;;;;;;;;;;;;;;5073478;28;1149;-71
2021/01/08 06:43:37;;;;;;;;;;;;;;;;;;5074882;28;899;-71
2021/01/08 06:46:03;;;;;;;;;;;;;;;;;;5073311;28;2410;-71
2021/01/08 06:48:28;;;;;;;;;;;;;;;;;;5073337;28;1344;-68
2021/01/08 06:50:59;;;;;;;;;;;;;;;;;;5074428;28;927;-70
2021/01/08 06:53:26;;;;;;;;;;;;;;;;;;5073450;28;933;-71
2021/01/08 06:55:53;;;;;;;;;;;;;;;;;;5074429;28;1922;-72
2021/01/08 06:58:18;;;;;;;;;;;;;;;;;;5074619;28;889;-69
2021/01/08 07:00:47;;;;;;;;;;;;;;;;;;5073162;28;1485;-71
2021/01/08 07:03:14;;;;;;;;;;;;;;;;;;5073484;28;1347;-70
2021/01/08 07:05:39;;;;;;;;;;;;;;;;;;5073423;28;1294;-70
2021/01/08 07:08:04;;;;;;;;;;;;;;;;;;5073270;28;1400;-68
2021/01/08 07:10:30;;;;;;;;;;;;;;;;;;5074239;28;865;-70
2021/01/08 07:12:56;;;;;;;;;;;;;;;;;;5074516;28;809;-68
2021/01/08 07:15:21;;;;;;;;;;;;;;;;;;5073033;28;1416;-70
2021/01/08 07:17:55;;;;;;;;;;;;;;;;;;5073149;28;1910;-70
2021/01/08 07:20:21;;;;;;;;;;;;;;;;;;5074165;28;888;-70
2021/01/08 07:22:50;;;;;;;;;;;;;;;;;;5073022;28;1345;-71
2021/01/08 07:25:16;;;;;;;;;;;;;;;;;;5074541;28;1401;-68
2021/01/08 07:27:42;;;;;;;;;;;;;;;;;;5073212;28;1365;-71
2021/01/08 07:30:10;;;;;;;;;;;;;;;;;;5074219;28;908;-70
2021/01/08 07:32:38;;;;;;;;;;;;;;;;;;5074488;28;829;-69
2021/01/08 07:35:22;;;;;;;;;;;;;;;;;;5074136;28;1301;-69
2021/01/08 07:37:56;;;;;;;;;;;;;;;;;;5072918;28;1914;-70
2021/01/08 07:40:22;;;;;;;;;;;;;;;;;;5074252;28;851;-71
2021/01/08 07:42:56;;;;;;;;;;;;;;;;;;5074245;28;871;-71
2021/01/08 07:45:22;;;;;;;;;;;;;;;;;;5072905;28;1549;-69
2021/01/08 07:47:47;;;;;;;;;;;;;;;;;;5074247;28;951;-70
2021/01/08 07:50:14;;;;;;;;;;;;;;;;;;5073733;28;1018;-69
2021/01/08 07:52:43;;;;;;;;;;;;;;;;;;5072881;28;887;-70
2021/01/08 07:55:09;;;;;;;;;;;;;;;;;;5074145;28;1262;-71
2021/01/08 07:57:53;;;;;;;;;;;;;;;;;;5074091;28;1890;-70
2021/01/08 08:00:26;;;;;;;;;;;;;;;;;;5073819;28;980;-71
2021/01/08 08:02:52;;;;;;;;;;;;;;;;;;5073202;28;849;-69
2021/01/08 08:05:18;;;;;;;;;;;;;;;;;;5076865;28;1605;-71
2021/01/08 08:07:44;;;;;;;;;;;;;;;;;;5077745;28;920;-70
2021/01/08 08:10:09;;;;;;;;;;;;;;;;;;5076043;28;2052;-70
2021/01/08 08:12:34;;;;;;;;;;;;;;;;;;5078019;28;959;-71
2021/01/08 08:15:00;;;;;;;;;;;;;;;;;;5077584;28;1285;-70
2021/01/08 08:17:25;;;;;;;;;;;;;;;;;;5077558;28;1966;-71
2021/01/08 08:19:50;;;;;;;;;;;;;;;;;;5077424;28;892;-71
2021/01/08 08:22:15;;;;;;;;;;;;;;;;;;5076354;28;933;-70
2021/01/08 08:24:41;;;;;;;;;;;;;;;;;;5077457;28;1290;-71
2021/01/08 08:27:14;;;;;;;;;;;;;;;;;;5077356;28;876;-69
2021/01/08 08:29:40;;;;;;;;;;;;;;;;;;5077083;28;942;-69
2021/01/08 08:32:05;;;;;;;;;;;;;;;;;;5077221;28;845;-71
2021/01/08 08:34:32;;;;;;;;;;;;;;;;;;5077228;28;1282;-70
2021/01/08 08:37:07;;;;;;;;;;;;;;;;;;5077126;28;1897;-70
2021/01/08 08:39:32;;;;;;;;;;;;;;;;;;5075949;28;1308;-69
2021/01/08 08:41:57;;;;;;;;;;;;;;;;;;5075660;28;896;-69
2021/01/08 08:44:23;;;;;;;;;;;;;;;;;;5076797;28;1317;-71
2021/01/08 08:46:48;;;;;;;;;;;;;;;;;;5077014;28;931;-69
2021/01/08 08:49:28;;;;;;;;;;;;;;;;;;5075723;28;1412;-69
2021/01/08 08:51:54;;;;;;;;;;;;;;;;;;5075476;28;1554;-70
2021/01/08 08:54:20;;;;;;;;;;;;;;;;;;5076766;28;1325;-70
2021/01/08 08:56:47;;;;;;;;;;;;;;;;;;5076364;28;1947;-70
2021/01/08 08:59:13;;;;;;;;;;;;;;;;;;5075627;28;1394;-72
2021/01/08 09:01:39;;;;;;;;;;;;;;;;;;5075449;28;1347;-71
2021/01/08 09:04:05;;;;;;;;;;;;;;;;;;5075500;28;1231;-69
2021/01/08 09:06:34;;;;;;;;;;;;;;;;;;5076541;28;1330;-69
2021/01/08 09:08:59;;;;;;;;;;;;;;;;;;5076382;28;1047;-72
2021/01/08 09:11:29;;;;;;;;;;;;;;;;;;5076487;28;1011;-70
2021/01/08 09:13:59;;;;;;;;;;;;;;;;;;5076475;28;912;-70
2021/01/08 09:16:25;;;;;;;;;;;;;;;;;;5076214;28;1936;-71
2021/01/08 09:19:11;;;;;;;;;;;;;;;;;;5075162;28;1481;-70
2021/01/08 09:21:38;;;;;;;;;;;;;;;;;;5075502;28;1153;-71
2021/01/08 09:24:04;;;;;;;;;;;;;;;;;;5075038;28;913;-70
2021/01/08 09:26:30;;;;;;;;;;;;;;;;;;5076168;28;1412;-70
2021/01/08 09:28:56;;;;;;;;;;;;;;;;;;5074664;28;1451;-69
2021/01/08 09:31:37;;;;;;;;;;;;;;;;;;5074335;28;1267;-72
2021/01/08 09:34:03;;;;;;;;;;;;;;;;;;5074665;28;1362;-70
2021/01/08 09:36:29;;;;;;;;;;;;;;;;;;5074671;28;1964;-70
2021/01/08 09:38:58;;;;;;;;;;;;;;;;;;5074496;28;1190;-68
2021/01/08 09:41:24;;;;;;;;;;;;;;;;;;5074381;28;861;-69
2021/01/08 09:43:56;;;;;;;;;;;;;;;;;;5074271;28;1419;-70
2021/01/08 09:46:22;;;;;;;;;;;;;;;;;;5075684;28;1400;-69
2021/01/08 09:48:47;;;;;;;;;;;;;;;;;;5074548;28;881;-70
2021/01/08 09:51:12;;;;;;;;;;;;;;;;;;5073997;28;1516;-70
2021/01/08 09:53:38;;;;;;;;;;;;;;;;;;5074097;28;1186;-71
2021/01/08 09:56:16;;;;;;;;;;;;;;;;;;5074928;28;1959;-70
2021/01/08 09:58:42;;;;;;;;;;;;;;;;;;5074264;28;893;-68
2021/01/08 10:01:08;;;;;;;;;;;;;;;;;;5073770;28;1198;-70
2021/01/08 10:03:34;;;;;;;;;;;;;;;;;;5074160;28;1608;-70
2021/01/08 10:06:03;;;;;;;;;;;;;;;;;;5075123;28;1322;-70
2021/01/08 10:08:28;;;;;;;;;;;;;;;;;;5074983;28;900;-71
2021/01/08 10:10:53;;;;;;;;;;;;;;;;;;5072323;28;1298;-72
2021/01/08 10:13:23;;;;;;;;;;;;;;;;;;5075052;28;983;-74
2021/01/08 10:15:49;;;;;;;;;;;;;;;;;;5074638;28;1960;-73
2021/01/08 10:18:23;;;;;;;;;;;;;;;;;;5075170;28;809;-73
2021/01/08 10:20:50;;;;;;;;;;;;;;;;;;5073345;28;1262;-73
2021/01/08 10:23:16;;;;;;;;;;;;;;;;;;5073519;28;1258;-74
2021/01/08 10:25:42;;;;;;;;;;;;;;;;;;5074243;28;1322;-72
2021/01/08 10:28:24;;;;;;;;;;;;;;;;;;5073480;28;1219;-73
2021/01/08 10:30:50;;;;;;;;;;;;;;;;;;5074565;28;886;-74
2021/01/08 10:33:16;;;;;;;;;;;;;;;;;;5073758;28;1402;-74
2021/01/08 10:35:45;;;;;;;;;;;;;;;;;;5073469;28;1385;-73
2021/01/08 10:38:10;;;;;;;;;;;;;;;;;;5074571;28;813;-74
2021/01/08 10:40:36;;;;;;;;;;;;;;;;;;5073456;28;1104;-73
2021/01/08 10:43:01;;;;;;;;;;;;;;;;;;5073572;28;897;-73
2021/01/08 10:45:26;;;;;;;;;;;;;;;;;;5073516;28;1329;-73
2021/01/08 10:47:51;;;;;;;;;;;;;;;;;;5073410;28;1412;-72
2021/01/08 10:50:17;;;;;;;;;;;;;;;;;;5074391;28;932;-73
2021/01/08 10:52:43;;;;;;;;;;;;;;;;;;5074358;28;829;-73
2021/01/08 10:55:09;;;;;;;;;;;;;;;;;;5074182;28;1400;-71
2021/01/08 10:57:34;;;;;;;;;;;;;;;;;;5074217;28;1886;-74
2021/01/08 11:00:00;;;;;;;;;;;;;;;;;;5073276;28;810;-72
2021/01/08 11:02:25;;;;;;;;;;;;;;;;;;5073494;28;1187;-73
2021/01/08 11:04:50;;;;;;;;;;;;;;;;;;5074489;28;1294;-71
2021/01/08 11:07:15;;;;;;;;;;;;;;;;;;5073191;28;877;-72
2021/01/08 11:09:41;;;;;;;;;;;;;;;;;;5074093;28;841;-74
2021/01/08 11:12:06;;;;;;;;;;;;;;;;;;5074350;28;864;-73
2021/01/08 11:14:32;;;;;;;;;;;;;;;;;;5073544;28;1278;-72
2021/01/08 11:16:57;;;;;;;;;;;;;;;;;;5074106;28;1898;-71
2021/01/08 11:19:23;;;;;;;;;;;;;;;;;;5074427;28;837;-73
2021/01/08 11:21:52;;;;;;;;;;;;;;;;;;5074233;28;998;-73
2021/01/08 11:24:17;;;;;;;;;;;;;;;;;;5074330;28;1314;-72
2021/01/08 11:26:42;;;;;;;;;;;;;;;;;;5073182;28;1455;-72
2021/01/08 11:29:08;;;;;;;;;;;;;;;;;;5073173;28;1552;-71
2021/01/08 11:31:34;;;;;;;;;;;;;;;;;;5073175;28;837;-73
2021/01/08 11:34:00;;;;;;;;;;;;;;;;;;5072784;28;830;-72
2021/01/08 11:36:25;;;;;;;;;;;;;;;;;;5074157;28;1959;-73
2021/01/08 11:38:51;;;;;;;;;;;;;;;;;;5076568;28;818;-73
2021/01/08 11:41:19;;;;;;;;;;;;;;;;;;5078012;28;809;-73
2021/01/08 11:43:45;;;;;;;;;;;;;;;;;;5078072;28;824;-72
2021/01/08 11:46:14;;;;;;;;;;;;;;;;;;5078002;28;1380;-72
2021/01/08 11:48:39;;;;;;;;;;;;;;;;;;5078023;28;840;-73
2021/01/08 11:51:04;;;;;;;;;;;;;;;;;;5076597;28;1253;-73
2021/01/08 11:53:29;;;;;;;;;;;;;;;;;;5078041;28;936;-73
2021/01/08 11:55:54;;;;;;;;;;;;;;;;;;5076769;28;1885;-72
2021/01/08 11:58:20;;;;;;;;;;;;;;;;;;5077852;28;1026;-72
2021/01/08 12:00:45;;;;;;;;;;;;;;;;;;5077655;28;909;-74
2021/01/08 12:03:10;;;;;;;;;;;;;;;;;;5077822;28;941;-73
2021/01/08 12:05:35;;;;;;;;;;;;;;;;;;5076758;28;1376;-73
2021/01/08 12:08:00;;;;;;;;;;;;;;;;;;5077531;28;845;-74
2021/01/08 12:10:26;;;;;;;;;;;;;;;;;;5077261;28;908;-73
2021/01/08 12:12:51;;;;;;;;;;;;;;;;;;5076606;28;1124;-73
2021/01/08 12:15:16;;;;;;;;;;;;;;;;;;5076412;28;1385;-73
2021/01/08 12:17:42;;;;;;;;;;;;;;;;;;5077478;28;1963;-82
2021/01/08 12:20:08;;;;;;;;;;;;;;;;;;5077731;28;979;-82
2021/01/08 12:22:33;;;;;;;;;;;;;;;;;;5077386;28;876;-81
2021/01/08 12:24:58;;;;;;;;;;;;;;;;;;5076451;28;1294;-81
2021/01/08 12:27:25;;;;;;;;;;;;;;;;;;5077657;28;821;-80
2021/01/08 12:29:50;;;;;;;;;;;;;;;;;;5077153;28;813;-80
2021/01/08 12:32:16;;;;;;;;;;;;;;;;;;5077275;28;913;-81
2021/01/08 12:34:41;;;;;;;;;;;;;;;;;;5075937;28;1373;-81
2021/01/08 12:37:06;;;;;;;;;;;;;;;;;;5077176;28;1898;-82
2021/01/08 12:39:34;;;;;;;;;;;;;;;;;;5076229;28;1452;-82
2021/01/08 12:42:00;;;;;;;;;;;;;;;;;;5075873;28;1693;-79
2021/01/08 12:44:25;;;;;;;;;;;;;;;;;;5077060;28;1286;-78
2021/01/08 12:46:50;;;;;;;;;;;;;;;;;;5077099;28;864;-80
2021/01/08 12:49:15;;;;;;;;;;;;;;;;;;5075501;28;845;-80
2021/01/08 12:51:41;;;;;;;;;;;;;;;;;;5076765;28;801;-81
2021/01/08 12:54:06;;;;;;;;;;;;;;;;;;5076988;28;876;-81
2021/01/08 12:56:32;;;;;;;;;;;;;;;;;;5076914;28;1898;-78
2021/01/08 12:58:57;;;;;;;;;;;;;;;;;;5075577;28;1370;-79
2021/01/08 13:01:23;;;;;;;;;;;;;;;;;;5072118;28;1821;-78
2021/01/08 13:03:48;;;;;;;;;;;;;;;;;;5065884;28;2035;-79
2021/01/08 13:06:20;;;;;;;;;;;;;;;;;;5066892;28;1899;-79
2021/01/08 13:08:46;;;;;;;;;;;;;;;;;;5066651;28;1985;-78
2021/01/08 13:11:12;;;;;;;;;;;;;;;;;;5067361;28;1890;-78
2021/01/08 13:13:37;;;;;;;;;;;;;;;;;;5072760;28;1858;-78
2021/01/08 13:16:03;;;;;;;;;;;;;;;;;;5076255;28;1898;-80
2021/01/08 13:18:28;;;;;;;;;;;;;;;;;;5076707;28;824;-78
2021/01/08 13:20:53;;;;;;;;;;;;;;;;;;5067776;28;1998;-80
2021/01/08 13:23:19;;;;;;;;;;;;;;;;;;5076943;28;1640;-79
2021/01/08 13:25:44;;;;;;;;;;;;;;;;;;5069312;28;1905;-79
2021/01/08 13:28:09;;;;;;;;;;;;;;;;;;5056459;28;1635;-78
2021/01/08 13:30:34;;;;;;;;;;;;;;;;;;5062000;28;2147;-79
2021/01/08 13:33:00;;;;;;;;;;;;;;;;;;5075308;28;1007;-79
2021/01/08 13:35:25;;;;;;;;;;;;;;;;;;5067059;28;1840;-81
2021/01/08 13:37:50;;;;;;;;;;;;;;;;;;5063195;28;2052;-76
2021/01/08 13:40:17;;;;;;;;;;;;;;;;;;5065476;28;1757;-78
2021/01/08 13:42:43;;;;;;;;;;;;;;;;;;5059557;28;1844;-79
2021/01/08 13:45:08;;;;;;;;;;;;;;;;;;5059528;28;1846;-77
2021/01/08 13:47:33;;;;;;;;;;;;;;;;;;5056012;28;2189;-76
2021/01/08 13:49:59;;;;;;;;;;;;;;;;;;5068711;28;1802;-77
2021/01/08 13:52:24;;;;;;;;;;;;;;;;;;5056177;28;1844;-77
2021/01/08 13:54:49;;;;;;;;;;;;;;;;;;5065171;28;2057;-77
2021/01/08 13:57:15;;;;;;;;;;;;;;;;;;5066651;28;2041;-79
2021/01/08 13:59:41;;;;;;;;;;;;;;;;;;5055666;28;857;-78
2021/01/08 14:02:06;;;;;;;;;;;;;;;;;;5063422;28;1889;-79
2021/01/08 14:04:32;;;;;;;;;;;;;;;;;;5057479;28;2005;-80
2021/01/08 14:06:57;;;;;;;;;;;;;;;;;;5055336;28;2017;-78
2021/01/08 14:09:23;;;;;;;;;;;;;;;;;;5056973;28;2003;-77
2021/01/08 14:11:49;;;;;;;;;;;;;;;;;;5062731;28;2008;-78
2021/01/08 14:14:14;;;;;;;;;;;;;;;;;;5056245;28;1825;-78
2021/01/08 14:16:40;;;;;;;;;;;;;;;;;;5054890;28;1959;-76
2021/01/08 14:19:06;;;;;;;;;;;;;;;;;;5070281;28;2106;-77
2021/01/08 14:21:38;;;;;;;;;;;;;;;;;;5054704;28;1856;-80
2021/01/08 14:24:05;;;;;;;;;;;;;;;;;;5073628;28;1667;-77
2021/01/08 14:26:30;;;;;;;;;;;;;;;;;;5060480;28;1879;-78
2021/01/08 14:28:56;;;;;;;;;;;;;;;;;;5058648;28;1859;-77
2021/01/08 14:31:25;;;;;;;;;;;;;;;;;;5055646;28;1566;-79
2021/01/08 14:33:51;;;;;;;;;;;;;;;;;;5054084;28;1886;-79
2021/01/08 14:36:22;;;;;;;;;;;;;;;;;;5058463;28;1885;-77
2021/01/08 14:38:48;;;;;;;;;;;;;;;;;;5053331;28;826;-80
2021/01/08 14:41:13;;;;;;;;;;;;;;;;;;5052713;28;2005;-77
2021/01/08 14:43:38;;;;;;;;;;;;;;;;;;5059154;28;2057;-79
2021/01/08 14:46:07;;;;;;;;;;;;;;;;;;5068562;28;2022;-78
2021/01/08 14:48:34;;;;;;;;;;;;;;;;;;5071414;28;1975;-79
2021/01/08 14:50:59;;;;;;;;;;;;;;;;;;5073888;28;928;-78
2021/01/08 14:53:25;;;;;;;;;;;;;;;;;;5061692;28;2297;-76
2021/01/08 14:55:50;;;;;;;;;;;;;;;;;;5056329;28;1951;-76
2021/01/08 14:58:16;;;;;;;;;;;;;;;;;;5059654;28;1951;-76
2021/01/08 15:00:41;;;;;;;;;;;;;;;;;;5053978;28;1990;-78
2021/01/08 15:03:06;;;;;;;;;;;;;;;;;;5055815;28;1784;-78
2021/01/08 15:05:31;;;;;;;;;;;;;;;;;;5057094;28;1995;-79
2021/01/08 15:07:57;;;;;;;;;;;;;;;;;;5057488;28;2063;-78
2021/01/08 15:10:22;;;;;;;;;;;;;;;;;;5070132;28;1832;-78
2021/01/08 15:12:49;;;;;;;;;;;;;;;;;;5056548;28;1874;-78
2021/01/08 15:15:14;;;;;;;;;;;;;;;;;;5073131;28;1949;-78
2021/01/08 15:17:40;;;;;;;;;;;;;;;;;;5070883;28;2055;-78
2021/01/08 15:20:05;;;;;;;;;;;;;;;;;;5064976;28;1737;-77
2021/01/08 15:22:30;;;;;;;;;;;;;;;;;;5059108;28;1865;-76
2021/01/08 15:24:59;;;;;;;;;;;;;;;;;;5061114;28;1558;-78
2021/01/08 15:27:24;;;;;;;;;;;;;;;;;;5052472;28;1345;-76
2021/01/08 15:29:49;;;;;;;;;;;;;;;;;;5054876;28;1769;-76
2021/01/08 15:32:14;;;;;;;;;;;;;;;;;;5052428;28;873;-77
2021/01/08 15:34:40;;;;;;;;;;;;;;;;;;5052755;28;1389;-78
2021/01/08 15:37:05;;;;;;;;;;;;;;;;;;5053486;28;1902;-78
2021/01/08 15:39:30;;;;;;;;;;;;;;;;;;5053696;28;1760;-78
2021/01/08 15:41:59;;;;;;;;;;;;;;;;;;5053657;28;932;-78
2021/01/08 15:44:24;;;;;;;;;;;;;;;;;;5052410;28;1482;-78
2021/01/08 15:46:49;;;;;;;;;;;;;;;;;;5052615;28;1122;-78
2021/01/08 15:49:15;;;;;;;;;;;;;;;;;;5066688;28;2469;-80
2021/01/08 15:51:40;;;;;;;;;;;;;;;;;;5072861;28;1799;-80
2021/01/08 15:54:05;;;;;;;;;;;;;;;;;;5061599;28;1089;-79
2021/01/08 15:56:30;;;;;;;;;;;;;;;;;;5053417;28;1898;-78
2021/01/08 15:58:57;;;;;;;;;;;;;;;;;;5065256;28;2015;-78
2021/01/08 16:01:22;;;;;;;;;;;;;;;;;;5072091;28;1773;-76
2021/01/08 16:03:48;;;;;;;;;;;;;;;;;;5073410;28;868;-78
2021/01/08 16:06:17;;;;;;;;;;;;;;;;;;5073323;28;1412;-77
2021/01/08 16:08:42;;;;;;;;;;;;;;;;;;5063736;28;1772;-79
2021/01/08 16:11:07;;;;;;;;;;;;;;;;;;5053723;28;1771;-76
2021/01/08 16:13:33;;;;;;;;;;;;;;;;;;5052559;28;1608;-80
2021/01/08 16:15:58;;;;;;;;;;;;;;;;;;5052911;28;1894;-80
2021/01/08 16:18:23;;;;;;;;;;;;;;;;;;5052129;28;1202;-79
2021/01/08 16:20:48;;;;;;;;;;;;;;;;;;5063368;28;1762;-80
2021/01/08 16:23:14;;;;;;;;;;;;;;;;;;5068648;28;1039;-81
2021/01/08 16:25:39;;;;;;;;;;;;;;;;;;5056663;28;1405;-81
2021/01/08 16:28:05;;;;;;;;;;;;;;;;;;5056697;28;892;-81
2021/01/08 16:30:31;;;;;;;;;;;;;;;;;;5063341;28;2067;-80
2021/01/08 16:32:59;;;;;;;;;;;;;;;;;;5076829;28;1028;-79
2021/01/08 16:35:24;;;;;;;;;;;;;;;;;;5076674;28;1325;-80
2021/01/08 16:37:51;;;;;;;;;;;;;;;;;;5075290;28;1889;-80
2021/01/08 16:40:17;;;;;;;;;;;;;;;;;;5070686;28;1472;-80
2021/01/08 16:42:42;;;;;;;;;;;;;;;;;;5056565;28;963;-80
2021/01/08 16:45:08;;;;;;;;;;;;;;;;;;5056562;28;1357;-80
2021/01/08 16:47:34;;;;;;;;;;;;;;;;;;5055480;28;1144;-80
2021/01/08 16:50:00;;;;;;;;;;;;;;;;;;5056994;28;1996;-80
2021/01/08 16:52:25;;;;;;;;;;;;;;;;;;5055223;28;798;-81
2021/01/08 16:54:51;;;;;;;;;;;;;;;;;;5056330;28;1285;-79
2021/01/08 16:57:16;;;;;;;;;;;;;;;;;;5055168;28;1889;-79
2021/01/08 16:59:42;;;;;;;;;;;;;;;;;;5069596;28;1779;-79
2021/01/08 17:02:08;;;;;;;;;;;;;;;;;;5076762;28;1028;-84